createdAt,value
2023-03-13T00:01:47.166Z,10.70
2023-03-13T00:04:14.637Z,10.66
2023-03-13T00:06:42.462Z,10.66
2023-03-13T00:09:13.997Z,10.63
2023-03-13T00:11:41.409Z,10.60
2023-03-13T00:14:09.176Z,10.58
2023-03-13T00:16:37.904Z,10.59
2023-03-13T00:19:07.040Z,10.57
2023-03-13T00:21:37.672Z,10.56
2023-03-13T00:24:05.389Z,10.55
2023-03-13T00:26:32.828Z,10.54
2023-03-13T00:29:00.227Z,10.53
2023-03-13T00:31:30.734Z,10.50
2023-03-13T00:34:03.627Z,10.50
2023-03-13T00:36:36.105Z,10.52
2023-03-13T00:39:05.976Z,10.53
2023-03-13T00:41:34.430Z,10.52
2023-03-13T00:44:01.690Z,10.51
2023-03-13T00:46:30.484Z,10.52
2023-03-13T00:48:57.821Z,10.57
2023-03-13T00:51:27.273Z,10.55
2023-03-13T00:54:02.117Z,10.57
2023-03-13T00:56:29.890Z,10.57
2023-03-13T00:58:57.246Z,10.58
2023-03-13T01:01:31.137Z,10.59
2023-03-13T01:04:08.170Z,10.61
2023-03-13T01:06:38.485Z,10.61
2023-03-13T01:09:08.111Z,10.63
2023-03-13T01:11:38.357Z,10.65
2023-03-13T01:14:15.673Z,10.67
2023-03-13T01:16:43.070Z,10.68
2023-03-13T01:19:14.411Z,10.70
2023-03-13T01:21:44.293Z,10.74
2023-03-13T01:24:11.927Z,10.77
2023-03-13T01:26:39.200Z,10.80
2023-03-13T01:29:06.229Z,10.81
2023-03-13T01:31:35.894Z,10.84
2023-03-13T01:34:06.378Z,10.89
2023-03-13T01:36:36.789Z,10.89
2023-03-13T01:39:05.011Z,10.90
2023-03-13T01:41:32.589Z,10.93
2023-03-13T01:44:00.489Z,10.95
2023-03-13T01:46:30.257Z,10.95
2023-03-13T01:49:24.627Z,10.99
2023-03-13T01:52:04.163Z,11.02
2023-03-13T01:55:03.516Z,11.03
2023-03-13T01:58:09.262Z,11.07
2023-03-13T02:00:38.133Z,11.07
2023-03-13T02:03:15.449Z,11.08
2023-03-13T02:05:44.670Z,11.10
2023-03-13T02:08:19.176Z,11.12
2023-03-13T02:11:01.739Z,11.15
2023-03-13T02:13:29.632Z,11.19
2023-03-13T02:15:57.236Z,11.21
2023-03-13T02:18:26.068Z,11.23
2023-03-13T02:21:02.627Z,11.26
2023-03-13T02:23:45.242Z,11.27
2023-03-13T02:26:15.303Z,11.28
2023-03-13T02:28:42.789Z,11.30
2023-03-13T02:31:13.263Z,11.33
2023-03-13T02:33:42.703Z,11.35
2023-03-13T02:36:09.908Z,11.36
2023-03-13T02:38:55.394Z,11.38
2023-03-13T02:41:24.612Z,11.38
2023-03-13T02:43:51.900Z,11.41
2023-03-13T02:46:21.001Z,11.44
2023-03-13T02:48:55.808Z,11.46
2023-03-13T02:51:37.058Z,11.47
2023-03-13T02:54:12.132Z,11.49
2023-03-13T02:56:43.274Z,11.50
2023-03-13T02:59:10.476Z,11.53
2023-03-13T03:01:37.790Z,11.53
2023-03-13T03:04:05.154Z,11.56
2023-03-13T03:06:33.283Z,11.59
2023-03-13T03:09:00.456Z,11.60
2023-03-13T03:11:27.683Z,11.63
2023-03-13T03:13:55.170Z,11.64
2023-03-13T03:16:22.273Z,11.66
2023-03-13T03:18:49.351Z,11.68
2023-03-13T03:21:16.746Z,11.71
2023-03-13T03:23:44.018Z,11.72
2023-03-13T03:26:11.238Z,11.73
2023-03-13T03:28:38.323Z,11.76
2023-03-13T03:31:08.060Z,11.76
2023-03-13T03:33:35.554Z,11.79
2023-03-13T03:36:07.248Z,11.82
2023-03-13T03:38:35.485Z,11.84
2023-03-13T03:41:02.571Z,11.88
2023-03-13T03:43:29.989Z,11.89
2023-03-13T03:45:57.707Z,11.90
2023-03-13T03:48:25.132Z,11.92
2023-03-13T03:50:52.206Z,11.94
2023-03-13T03:53:19.598Z,11.97
2023-03-13T03:55:46.997Z,11.99
2023-03-13T03:58:14.459Z,12.02
2023-03-13T04:00:45.987Z,12.03
2023-03-13T04:03:13.691Z,12.06
2023-03-13T04:05:41.560Z,12.11
2023-03-13T04:08:09.638Z,12.13
2023-03-13T04:10:37.034Z,12.16
2023-03-13T04:13:04.413Z,12.18
2023-03-13T04:15:32.248Z,12.20
2023-03-13T04:17:59.616Z,12.23
2023-03-13T04:20:26.843Z,12.25
2023-03-13T04:22:54.195Z,12.27
2023-03-13T04:25:21.752Z,12.29
2023-03-13T04:27:49.254Z,12.31
2023-03-13T04:30:18.626Z,12.33
2023-03-13T04:32:46.372Z,12.34
2023-03-13T04:35:13.788Z,12.36
2023-03-13T04:37:41.244Z,12.37
2023-03-13T04:40:09.709Z,12.38
2023-03-13T04:42:36.879Z,12.41
2023-03-13T04:45:04.444Z,12.44
2023-03-13T04:47:31.459Z,12.45
2023-03-13T04:49:58.668Z,12.47
2023-03-13T04:52:25.677Z,12.48
2023-03-13T04:54:52.886Z,12.50
2023-03-13T04:57:20.194Z,12.53
2023-03-13T04:59:47.279Z,12.55
2023-03-13T05:02:14.543Z,12.56
2023-03-13T05:04:41.585Z,12.58
2023-03-13T05:07:08.575Z,12.60
2023-03-13T05:09:35.574Z,12.61
2023-03-13T05:12:02.685Z,12.61
2023-03-13T05:14:29.884Z,12.63
2023-03-13T05:16:57.267Z,12.64
2023-03-13T05:19:24.485Z,12.66
2023-03-13T05:21:51.681Z,12.67
2023-03-13T05:24:18.914Z,12.71
2023-03-13T05:26:45.911Z,12.74
2023-03-13T05:29:12.891Z,12.77
2023-03-13T05:31:40.046Z,12.79
2023-03-13T05:34:07.128Z,12.83
2023-03-13T05:36:34.261Z,12.84
2023-03-13T05:39:01.406Z,12.87
2023-03-13T05:41:28.484Z,12.88
2023-03-13T05:43:55.539Z,12.91
2023-03-13T05:46:23.109Z,12.92
2023-03-13T05:48:50.426Z,12.94
2023-03-13T05:51:17.503Z,12.94
2023-03-13T05:53:45.075Z,12.94
2023-03-13T05:56:12.133Z,12.95
2023-03-13T05:58:39.291Z,12.98
2023-03-13T06:01:09.123Z,12.97
2023-03-13T06:03:36.401Z,13.00
2023-03-13T06:06:04.074Z,13.02
2023-03-13T06:08:32.664Z,13.04
2023-03-13T06:11:01.852Z,13.06
2023-03-13T06:13:29.168Z,13.10
2023-03-13T06:15:58.104Z,13.12
2023-03-13T06:18:27.164Z,13.14
2023-03-13T06:21:00.813Z,13.18
2023-03-13T06:23:28.719Z,13.21
2023-03-13T06:25:56.508Z,13.25
2023-03-13T06:28:23.972Z,13.30
2023-03-13T06:30:51.384Z,13.32
2023-03-13T06:33:18.553Z,13.34
2023-03-13T06:35:56.334Z,13.36
2023-03-13T06:38:25.424Z,13.37
2023-03-13T06:40:52.577Z,13.38
2023-03-13T06:43:20.757Z,13.40
2023-03-13T06:45:48.019Z,13.44
2023-03-13T06:48:15.096Z,13.45
2023-03-13T06:50:43.136Z,13.46
2023-03-13T06:53:19.740Z,13.47
2023-03-13T06:55:49.491Z,13.48
2023-03-13T06:58:31.649Z,13.49
2023-03-13T07:01:12.253Z,13.50
2023-03-13T07:03:41.650Z,13.51
2023-03-13T07:06:10.350Z,13.53
2023-03-13T07:08:38.384Z,13.57
2023-03-13T07:11:09.983Z,13.60
2023-03-13T07:13:37.848Z,13.66
2023-03-13T07:16:12.090Z,13.72
2023-03-13T07:18:44.796Z,13.81
2023-03-13T07:21:12.932Z,13.88
2023-03-13T07:23:40.314Z,13.96
2023-03-13T07:26:17.324Z,14.02
2023-03-13T07:28:44.495Z,14.05
2023-03-13T07:31:16.770Z,14.09
2023-03-13T07:33:45.137Z,14.14
2023-03-13T07:36:15.570Z,14.20
2023-03-13T07:38:44.230Z,14.22
2023-03-13T07:41:14.708Z,14.26
2023-03-13T07:43:42.116Z,14.26
2023-03-13T07:46:14.084Z,14.27
2023-03-13T07:48:43.302Z,14.25
2023-03-13T07:51:25.249Z,14.22
2023-03-13T07:53:57.360Z,14.17
2023-03-13T07:56:25.451Z,14.18
2023-03-13T07:58:52.670Z,14.19
2023-03-13T08:01:29.855Z,14.16
2023-03-13T08:03:58.846Z,14.18
2023-03-13T08:06:27.692Z,14.26
2023-03-13T08:08:58.389Z,14.44
2023-03-13T08:11:28.580Z,14.72
2023-03-13T08:13:57.744Z,14.92
2023-03-13T08:16:34.588Z,15.09
2023-03-13T08:19:05.918Z,15.20
2023-03-13T08:21:38.059Z,15.30
2023-03-13T08:24:09.115Z,15.46
2023-03-13T08:26:39.320Z,15.58
2023-03-13T08:29:13.754Z,15.63
2023-03-13T08:31:49.714Z,15.72
2023-03-13T08:34:18.897Z,15.82
2023-03-13T08:36:46.710Z,15.88
2023-03-13T08:39:17.895Z,15.92
2023-03-13T08:41:45.567Z,15.97
2023-03-13T08:44:16.087Z,15.98
2023-03-13T08:46:44.227Z,16.03
2023-03-13T08:49:13.277Z,16.05
2023-03-13T08:51:40.959Z,16.10
2023-03-13T08:54:08.443Z,16.11
2023-03-13T08:56:35.665Z,16.12
2023-03-13T08:59:05.543Z,16.22
2023-03-13T09:01:35.652Z,16.35
2023-03-13T09:04:05.386Z,16.42
2023-03-13T09:06:38.387Z,16.46
2023-03-13T09:09:07.131Z,16.55
2023-03-13T09:11:35.974Z,16.60
2023-03-13T09:14:03.340Z,16.68
2023-03-13T09:16:32.498Z,16.55
2023-03-13T09:19:00.191Z,16.53
2023-03-13T09:21:35.884Z,16.61
2023-03-13T09:24:03.401Z,16.69
2023-03-13T09:26:30.588Z,16.77
2023-03-13T09:28:57.805Z,16.84
2023-03-13T09:31:31.523Z,17.02
2023-03-13T09:34:00.718Z,17.08
2023-03-13T09:36:29.001Z,17.01
2023-03-13T09:38:59.311Z,16.95
2023-03-13T09:41:40.564Z,16.97
2023-03-13T09:44:28.644Z,17.14
2023-03-13T09:47:34.511Z,17.23
2023-03-13T09:50:30.092Z,17.39
2023-03-13T09:53:06.103Z,17.75
2023-03-13T09:55:38.013Z,17.95
2023-03-13T09:58:21.811Z,18.06
2023-03-13T10:00:58.391Z,18.14
2023-03-13T10:03:39.638Z,18.21
2023-03-13T10:06:18.306Z,17.98
2023-03-13T10:08:46.002Z,17.88
2023-03-13T10:11:37.816Z,17.93
2023-03-13T10:14:53.035Z,18.22
2023-03-13T10:17:34.423Z,18.39
2023-03-13T10:20:18.445Z,18.47
2023-03-13T10:22:49.017Z,18.53
2023-03-13T10:25:33.657Z,18.61
2023-03-13T10:28:01.697Z,18.60
2023-03-13T10:30:43.478Z,18.74
2023-03-13T10:33:20.860Z,19.04
2023-03-13T10:36:13.444Z,19.09
2023-03-13T10:38:51.219Z,18.95
2023-03-13T10:41:38.481Z,18.99
2023-03-13T10:44:16.695Z,19.08
2023-03-13T10:46:47.345Z,19.13
2023-03-13T10:49:20.777Z,19.11
2023-03-13T10:51:59.315Z,18.95
2023-03-13T10:54:32.615Z,18.93
2023-03-13T10:57:29.243Z,18.94
2023-03-13T10:59:57.219Z,18.97
2023-03-13T11:02:35.974Z,18.92
2023-03-13T11:05:44.949Z,18.97
2023-03-13T11:08:36.440Z,19.19
2023-03-13T11:11:20.490Z,19.35
2023-03-13T11:13:48.029Z,19.24
2023-03-13T11:16:28.421Z,19.06
2023-03-13T11:19:13.582Z,19.04
2023-03-13T11:22:11.476Z,19.10
2023-03-13T11:24:50.001Z,19.20
2023-03-13T11:27:28.872Z,19.32
2023-03-13T11:30:37.393Z,19.47
2023-03-13T11:33:35.026Z,19.40
2023-03-13T11:36:53.741Z,19.28
2023-03-13T11:39:51.415Z,19.13
2023-03-13T11:42:46.583Z,19.20
2023-03-13T11:45:34.803Z,19.15
2023-03-13T11:48:34.258Z,19.04
2023-03-13T11:51:24.845Z,19.15
2023-03-13T11:54:20.085Z,19.22
2023-03-13T11:56:58.494Z,19.25
2023-03-13T11:59:34.440Z,19.41
2023-03-13T12:02:23.207Z,19.39
2023-03-13T12:05:02.086Z,19.44
2023-03-13T12:07:47.345Z,19.45
2023-03-13T12:10:47.604Z,19.64
2023-03-13T12:13:29.338Z,19.62
2023-03-13T12:16:03.638Z,19.56
2023-03-13T12:18:36.493Z,19.78
2023-03-13T12:21:19.649Z,20.00
2023-03-13T12:24:20.987Z,20.05
2023-03-13T12:26:59.490Z,20.11
2023-03-13T12:29:48.922Z,20.35
2023-03-13T12:32:48.619Z,20.40
2023-03-13T12:35:29.912Z,20.36
2023-03-13T12:38:03.023Z,20.22
2023-03-13T12:41:00.673Z,20.34
2023-03-13T12:43:39.317Z,20.26
2023-03-13T12:46:37.273Z,20.32
2023-03-13T12:49:23.253Z,20.43
2023-03-13T12:52:01.299Z,20.67
2023-03-13T12:54:34.422Z,20.62
2023-03-13T12:57:41.741Z,20.32
2023-03-13T13:00:27.159Z,20.42
2023-03-13T13:03:31.876Z,20.54
2023-03-13T13:06:16.280Z,20.40
2023-03-13T13:08:49.567Z,20.21
2023-03-13T13:11:38.759Z,20.14
2023-03-13T13:14:17.934Z,20.27
2023-03-13T13:17:02.948Z,20.40
2023-03-13T13:19:42.149Z,20.50
2023-03-13T13:22:36.997Z,20.55
2023-03-13T13:25:13.215Z,20.33
2023-03-13T13:27:40.573Z,20.13
2023-03-13T13:30:20.124Z,20.01
2023-03-13T13:32:50.820Z,19.90
2023-03-13T13:35:31.448Z,19.75
2023-03-13T13:38:17.773Z,19.67
2023-03-13T13:41:03.497Z,19.49
2023-03-13T13:43:39.962Z,19.32
2023-03-13T13:46:34.472Z,19.31
2023-03-13T13:49:08.216Z,19.54
2023-03-13T13:51:39.654Z,19.78
2023-03-13T13:54:13.019Z,19.95
2023-03-13T13:56:45.486Z,19.95
2023-03-13T13:59:25.505Z,19.81
2023-03-13T14:02:21.527Z,19.69
2023-03-13T14:05:06.849Z,19.53
2023-03-13T14:08:00.604Z,19.65
2023-03-13T14:10:47.069Z,19.62
2023-03-13T14:13:21.218Z,19.49
2023-03-13T14:15:53.477Z,19.40
2023-03-13T14:18:30.568Z,19.40
2023-03-13T14:20:57.879Z,19.58
2023-03-13T14:23:43.239Z,19.95
2023-03-13T14:26:25.535Z,19.99
2023-03-13T14:28:59.709Z,20.13
2023-03-13T14:31:34.567Z,20.20
2023-03-13T14:34:08.422Z,20.33
2023-03-13T14:36:51.433Z,20.31
2023-03-13T14:39:32.019Z,20.05
2023-03-13T14:42:14.864Z,19.82
2023-03-13T14:44:44.215Z,19.61
2023-03-13T14:47:25.382Z,19.51
2023-03-13T14:50:10.026Z,19.35
2023-03-13T14:52:40.064Z,19.32
2023-03-13T14:55:31.288Z,19.64
2023-03-13T14:58:05.294Z,19.73
2023-03-13T15:00:44.669Z,19.68
2023-03-13T15:03:16.859Z,19.67
2023-03-13T15:06:07.570Z,19.64
2023-03-13T15:08:47.216Z,19.59
2023-03-13T15:11:34.154Z,19.70
2023-03-13T15:14:02.441Z,19.82
2023-03-13T15:16:30.189Z,19.87
2023-03-13T15:18:57.864Z,19.85
2023-03-13T15:21:28.286Z,19.89
2023-03-13T15:24:12.486Z,19.89
2023-03-13T15:26:39.595Z,19.83
2023-03-13T15:29:07.215Z,19.82
2023-03-13T15:31:34.529Z,19.75
2023-03-13T15:34:02.315Z,19.58
2023-03-13T15:36:31.730Z,19.43
2023-03-13T15:38:58.846Z,19.33
2023-03-13T15:41:26.032Z,19.24
2023-03-13T15:43:55.333Z,19.20
2023-03-13T15:46:24.468Z,19.13
2023-03-13T15:48:51.836Z,19.02
2023-03-13T15:51:19.215Z,18.86
2023-03-13T15:53:46.550Z,18.77
2023-03-13T15:56:20.660Z,18.81
2023-03-13T15:58:48.894Z,18.88
2023-03-13T16:01:18.696Z,18.84
2023-03-13T16:03:46.190Z,18.78
2023-03-13T16:06:30.855Z,18.78
2023-03-13T16:09:02.400Z,18.81
2023-03-13T16:11:29.962Z,18.87
2023-03-13T16:13:57.607Z,18.85
2023-03-13T16:16:37.576Z,18.72
2023-03-13T16:19:07.552Z,18.62
2023-03-13T16:21:40.445Z,18.53
2023-03-13T16:24:07.903Z,18.52
2023-03-13T16:26:35.010Z,18.57
2023-03-13T16:29:02.450Z,18.55
2023-03-13T16:31:33.159Z,18.46
2023-03-13T16:34:02.260Z,18.30
2023-03-13T16:36:32.437Z,18.18
2023-03-13T16:39:01.873Z,18.17
2023-03-13T16:41:30.128Z,18.08
2023-03-13T16:43:57.636Z,17.92
2023-03-13T16:46:38.079Z,17.79
2023-03-13T16:49:06.858Z,17.67
2023-03-13T16:51:34.431Z,17.60
2023-03-13T16:54:01.904Z,17.60
2023-03-13T16:56:31.856Z,17.53
2023-03-13T16:59:00.835Z,17.45
2023-03-13T17:01:29.105Z,17.38
2023-03-13T17:03:58.622Z,17.33
2023-03-13T17:06:37.795Z,17.28
2023-03-13T17:09:13.498Z,17.20
2023-03-13T17:11:41.145Z,17.11
2023-03-13T17:14:11.427Z,17.05
2023-03-13T17:16:46.210Z,17.04
2023-03-13T17:19:14.735Z,16.96
2023-03-13T17:21:42.221Z,16.87
2023-03-13T17:24:09.625Z,16.82
2023-03-13T17:26:39.559Z,16.74
2023-03-13T17:29:08.673Z,16.64
2023-03-13T17:31:39.923Z,16.53
2023-03-13T17:34:08.752Z,16.44
2023-03-13T17:36:36.539Z,16.35
2023-03-13T17:39:08.877Z,16.30
2023-03-13T17:41:36.511Z,16.22
2023-03-13T17:44:03.969Z,16.18
2023-03-13T17:46:34.122Z,16.14
2023-03-13T17:49:02.215Z,16.06
2023-03-13T17:51:32.551Z,15.97
2023-03-13T17:54:00.537Z,15.94
2023-03-13T17:56:36.322Z,15.91
2023-03-13T17:59:04.389Z,15.86
2023-03-13T18:01:34.987Z,15.82
2023-03-13T18:04:02.850Z,15.81
2023-03-13T18:06:42.990Z,15.75
2023-03-13T18:09:21.920Z,15.71
2023-03-13T18:11:49.603Z,15.65
2023-03-13T18:14:17.043Z,15.61
2023-03-13T18:16:47.992Z,15.57
2023-03-13T18:19:24.002Z,15.50
2023-03-13T18:21:55.153Z,15.46
2023-03-13T18:24:23.015Z,15.41
2023-03-13T18:26:50.663Z,15.36
2023-03-13T18:29:26.333Z,15.34
2023-03-13T18:32:00.415Z,15.28
2023-03-13T18:34:29.621Z,15.25
2023-03-13T18:37:03.419Z,15.23
2023-03-13T18:39:32.702Z,15.17
2023-03-13T18:42:00.159Z,15.10
2023-03-13T18:44:27.888Z,15.05
2023-03-13T18:46:54.922Z,14.98
2023-03-13T18:49:24.898Z,14.92
2023-03-13T18:51:53.989Z,14.87
2023-03-13T18:54:21.364Z,14.81
2023-03-13T18:56:48.635Z,14.77
2023-03-13T18:59:21.800Z,14.72
2023-03-13T19:01:49.661Z,14.68
2023-03-13T19:04:19.405Z,14.66
2023-03-13T19:06:48.214Z,14.64
2023-03-13T19:12:12.067Z,14.59
2023-03-13T19:14:39.403Z,14.55
2023-03-13T19:17:29.044Z,14.52
2023-03-13T19:19:59.580Z,14.49
2023-03-13T19:22:27.033Z,14.48
2023-03-13T19:25:02.273Z,14.46
2023-03-13T19:27:33.158Z,14.42
2023-03-13T19:30:00.477Z,14.40
2023-03-13T19:32:27.913Z,14.35
2023-03-13T19:34:54.972Z,14.34
2023-03-13T19:37:22.216Z,14.32
2023-03-13T19:39:49.526Z,14.29
2023-03-13T19:42:16.753Z,14.26
2023-03-13T19:44:44.394Z,14.24
2023-03-13T19:47:15.775Z,14.20
2023-03-13T19:49:42.995Z,14.16
2023-03-13T19:52:10.276Z,14.11
2023-03-13T19:54:38.640Z,14.06
2023-03-13T19:57:06.041Z,14.03
2023-03-13T19:59:35.794Z,14.00
2023-03-13T20:02:04.299Z,13.96
2023-03-13T20:04:31.715Z,13.97
2023-03-13T20:06:59.145Z,13.93
2023-03-13T20:09:26.193Z,13.89
2023-03-13T20:11:53.749Z,13.88
2023-03-13T20:14:24.378Z,13.85
2023-03-13T20:16:51.847Z,13.86
2023-03-13T20:19:19.141Z,13.84
2023-03-13T20:22:23.317Z,13.84
2023-03-13T20:28:10.210Z,13.80
2023-03-13T20:30:47.262Z,13.78
2023-03-13T20:33:15.150Z,13.75
2023-03-13T20:35:42.599Z,13.75
2023-03-13T20:38:10.008Z,13.75
2023-03-13T20:40:37.582Z,13.72
2023-03-13T20:43:05.139Z,13.71
2023-03-13T20:45:32.494Z,13.68
2023-03-13T20:47:59.960Z,13.64
2023-03-13T20:50:27.724Z,13.62
2023-03-13T20:52:56.177Z,13.62
2023-03-13T20:55:23.282Z,13.61
2023-03-13T20:57:50.315Z,13.60
2023-03-13T21:00:18.238Z,13.60
2023-03-13T21:02:46.806Z,13.59
2023-03-13T21:05:14.082Z,13.58
2023-03-13T21:07:41.451Z,13.56
2023-03-13T21:10:10.250Z,13.50
2023-03-13T21:12:37.332Z,13.45
2023-03-13T21:15:06.916Z,13.42
2023-03-13T21:17:35.151Z,13.41
2023-03-13T21:20:07.805Z,13.40
2023-03-13T21:22:34.795Z,13.38
2023-03-13T21:25:04.401Z,13.36
2023-03-13T21:27:32.166Z,13.34
2023-03-13T21:29:59.388Z,13.34
2023-03-13T21:32:26.804Z,13.30
2023-03-13T21:34:54.244Z,13.32
2023-03-13T21:37:21.908Z,13.29
2023-03-13T21:39:53.833Z,13.28
2023-03-13T21:42:21.276Z,13.24
2023-03-13T21:44:48.620Z,13.19
2023-03-13T21:47:24.198Z,13.18
2023-03-13T21:49:55.783Z,13.15
2023-03-13T21:52:23.541Z,13.12
2023-03-13T21:54:50.718Z,13.07
2023-03-13T21:57:17.895Z,13.05
2023-03-13T21:59:45.346Z,13.03
2023-03-13T22:02:13.402Z,13.04
2023-03-13T22:04:41.016Z,13.05
2023-03-13T22:07:08.315Z,13.05
2023-03-13T22:09:35.734Z,13.04
2023-03-13T22:12:02.794Z,13.05
2023-03-13T22:14:30.593Z,13.03
2023-03-13T22:16:58.191Z,13.02
2023-03-13T22:19:25.657Z,13.00
2023-03-13T22:21:52.749Z,13.00
2023-03-13T22:24:20.180Z,12.98
2023-03-13T22:26:47.629Z,12.97
2023-03-13T22:29:15.010Z,12.98
2023-03-13T22:31:42.300Z,12.98
2023-03-13T22:34:09.513Z,12.98
2023-03-13T22:36:38.083Z,12.99
2023-03-13T22:39:05.144Z,13.00
2023-03-13T22:41:32.207Z,12.94
2023-03-13T22:43:59.427Z,12.92
2023-03-13T22:46:26.560Z,12.88
2023-03-13T22:48:53.624Z,12.88
2023-03-13T22:51:20.716Z,12.87
2023-03-13T22:53:48.126Z,12.87
2023-03-13T22:56:15.435Z,12.83
2023-03-13T22:58:43.063Z,12.83
2023-03-13T23:01:17.551Z,12.85
2023-03-13T23:03:45.435Z,12.87
2023-03-13T23:06:23.338Z,12.90
2023-03-13T23:08:50.905Z,12.90
2023-03-13T23:11:19.708Z,12.91
2023-03-13T23:13:47.289Z,12.93
2023-03-13T23:16:15.060Z,12.94
2023-03-13T23:18:42.588Z,12.98
2023-03-13T23:21:14.060Z,12.99
2023-03-13T23:23:42.538Z,13.03
2023-03-13T23:26:14.140Z,13.05
2023-03-13T23:28:41.873Z,13.06
2023-03-13T23:31:21.442Z,13.05
2023-03-13T23:33:49.694Z,13.05
2023-03-13T23:36:19.375Z,13.04
2023-03-13T23:38:51.027Z,13.00
2023-03-13T23:41:19.392Z,12.97
2023-03-13T23:43:47.025Z,12.96
2023-03-13T23:46:23.970Z,12.93
2023-03-13T23:48:58.699Z,12.92
2023-03-13T23:51:26.499Z,12.90
2023-03-13T23:53:53.814Z,12.92
2023-03-13T23:56:21.094Z,12.91
2023-03-13T23:58:48.188Z,12.91
